Time,TemperatureF,DewpointF,PressureIn,WindDirection,WindDirectionDegrees,WindSpeedMPH,WindSpeedGustMPH,Humidity,HourlyPrecipIn,Conditions,Clouds,dailyrainin,SoftwareType,DateUTC
2013-03-08 00:00:00,-999.0,-99.9,-100.00,South,175,7.0,-999.0,-999,0.00,,,0.00,,2013-03-08 06:00:00,
2013-03-08 00:32:00,-999.0,-99.9,-100.00,South,175,7.0,-999.0,-999,0.00,,,0.00,,2013-03-08 06:32:00,
2013-03-08 00:42:00,-999.0,-99.9,-100.00,South,175,7.0,-999.0,-999,0.00,,,0.00,,2013-03-08 06:42:00,
2013-03-08 00:52:00,-999.0,-99.9,-100.00,South,175,7.0,-999.0,-999,0.00,,,0.00,,2013-03-08 06:52:00,
2013-03-08 01:00:00,-999.0,-99.9,-100.00,South,171,6.0,-999.0,-999,0.00,,,0.00,,2013-03-08 07:00:00,
2013-03-08 01:32:00,-999.0,-99.9,-100.00,South,171,6.0,-999.0,-999,0.00,,,0.00,,2013-03-08 07:32:00,
2013-03-08 01:42:00,-999.0,-99.9,-100.00,South,171,6.0,-999.0,-999,0.00,,,0.00,,2013-03-08 07:42:00,
2013-03-08 01:52:00,-999.0,-99.9,-100.00,South,171,6.0,-999.0,-999,0.00,,,0.00,,2013-03-08 07:52:00,
2013-03-08 02:00:00,-999.0,-99.9,-100.00,South,173,8.0,-999.0,-999,0.00,,,0.00,,2013-03-08 08:00:00,
2013-03-08 02:32:00,-999.0,-99.9,-100.00,South,173,8.0,-999.0,-999,0.00,,,0.00,,2013-03-08 08:32:00,
2013-03-08 02:42:00,-999.0,-99.9,-100.00,South,173,8.0,-999.0,-999,0.00,,,0.00,,2013-03-08 08:42:00,
2013-03-08 02:52:00,-999.0,-99.9,-100.00,South,173,8.0,-999.0,-999,0.00,,,0.00,,2013-03-08 08:52:00,
2013-03-08 03:00:00,-999.0,-99.9,-100.00,South,173,6.0,-999.0,-999,0.00,,,0.00,,2013-03-08 09:00:00,
2013-03-08 03:32:00,-999.0,-99.9,-100.00,South,173,6.0,-999.0,-999,0.00,,,0.00,,2013-03-08 09:32:00,
2013-03-08 03:42:00,-999.0,-99.9,-100.00,South,173,6.0,-999.0,-999,0.00,,,0.00,,2013-03-08 09:42:00,
2013-03-08 03:52:00,-999.0,-99.9,-100.00,South,173,6.0,-999.0,-999,0.00,,,0.00,,2013-03-08 09:52:00,
2013-03-08 04:00:00,-999.0,-99.9,-100.00,South,171,8.0,-999.0,-999,0.00,,,0.00,,2013-03-08 10:00:00,
2013-03-08 04:42:00,-999.0,-99.9,-100.00,South,171,8.0,-999.0,-999,0.00,,,0.00,,2013-03-08 10:42:00,
2013-03-08 04:52:00,-999.0,-99.9,-100.00,South,171,8.0,-999.0,-999,0.00,,,0.00,,2013-03-08 10:52:00,
2013-03-08 05:00:00,-999.0,-99.9,-100.00,South,181,5.0,-999.0,-999,0.00,,,0.00,,2013-03-08 11:00:00,
2013-03-08 05:32:00,-999.0,-99.9,-100.00,South,181,5.0,-999.0,-999,0.00,,,0.00,,2013-03-08 11:32:00,
2013-03-08 05:42:00,-999.0,-99.9,-100.00,South,181,5.0,-999.0,-999,0.00,,,0.00,,2013-03-08 11:42:00,
2013-03-08 05:53:00,-999.0,-99.9,-100.00,South,181,5.0,-999.0,-999,0.00,,,0.00,,2013-03-08 11:53:00,
2013-03-08 07:00:00,-999.0,-99.9,-100.00,South,171,6.0,-999.0,-999,0.00,,,0.00,,2013-03-08 13:00:00,
2013-03-08 07:33:00,-999.0,-99.9,-100.00,South,171,6.0,-999.0,-999,0.00,,,0.00,,2013-03-08 13:33:00,
2013-03-08 07:42:00,-999.0,-99.9,-100.00,South,171,6.0,-999.0,-999,0.00,,,0.00,,2013-03-08 13:42:00,
2013-03-08 07:52:00,-999.0,-99.9,-100.00,South,171,6.0,-999.0,-999,0.00,,,0.00,,2013-03-08 13:52:00,
2013-03-08 08:00:00,-999.0,-99.9,-100.00,South,170,6.0,-999.0,-999,0.00,,,0.00,,2013-03-08 14:00:00,
2013-03-08 08:33:00,-999.0,-99.9,-100.00,South,170,6.0,-999.0,-999,0.00,,,0.00,,2013-03-08 14:33:00,
2013-03-08 08:42:00,-999.0,-99.9,-100.00,South,170,6.0,-999.0,-999,0.00,,,0.00,,2013-03-08 14:42:00,
2013-03-08 08:53:00,-999.0,-99.9,-100.00,South,170,6.0,-999.0,-999,0.00,,,0.00,,2013-03-08 14:53:00,
2013-03-08 09:00:00,-999.0,-99.9,-100.00,South,171,8.0,-999.0,-999,0.00,,,0.00,,2013-03-08 15:00:00,
2013-03-08 09:32:00,-999.0,-99.9,-100.00,South,171,8.0,-999.0,-999,0.00,,,0.00,,2013-03-08 15:32:00,
2013-03-08 09:43:00,-999.0,-99.9,-100.00,South,171,8.0,-999.0,-999,0.00,,,0.00,,2013-03-08 15:43:00,
2013-03-08 09:53:00,-999.0,-99.9,-100.00,South,171,8.0,-999.0,-999,0.00,,,0.00,,2013-03-08 15:53:00,
2013-03-08 10:00:00,-999.0,-99.9,-100.00,South,174,12.0,-999.0,-999,0.00,,,0.00,,2013-03-08 16:00:00,
2013-03-08 10:32:00,-999.0,-99.9,-100.00,South,174,12.0,-999.0,-999,0.00,,,0.00,,2013-03-08 16:32:00,
2013-03-08 10:42:00,-999.0,-99.9,-100.00,South,174,12.0,-999.0,-999,0.00,,,0.00,,2013-03-08 16:42:00,
2013-03-08 10:52:00,-999.0,-99.9,-100.00,South,174,12.0,-999.0,-999,0.00,,,0.00,,2013-03-08 16:52:00,
2013-03-08 11:00:00,-999.0,-99.9,-100.00,South,179,8.0,-999.0,-999,0.00,,,0.00,,2013-03-08 17:00:00,
2013-03-08 11:32:00,-999.0,-99.9,-100.00,South,179,8.0,-999.0,-999,0.00,,,0.00,,2013-03-08 17:32:00,
2013-03-08 11:42:00,-999.0,-99.9,-100.00,South,179,8.0,-999.0,-999,0.00,,,0.00,,2013-03-08 17:42:00,
2013-03-08 11:52:00,-999.0,-99.9,-100.00,South,179,8.0,-999.0,-999,0.00,,,0.00,,2013-03-08 17:52:00,
2013-03-08 12:00:00,-999.0,-99.9,-100.00,SSE,161,12.0,-999.0,-999,0.00,,,0.00,,2013-03-08 18:00:00,
2013-03-08 12:32:00,-999.0,-99.9,-100.00,SSE,161,12.0,-999.0,-999,0.00,,,0.00,,2013-03-08 18:32:00,
2013-03-08 12:42:00,-999.0,-99.9,-100.00,SSE,161,12.0,-999.0,-999,0.00,,,0.00,,2013-03-08 18:42:00,
2013-03-08 12:52:00,-999.0,-99.9,-100.00,SSE,161,12.0,-999.0,-999,0.00,,,0.00,,2013-03-08 18:52:00,
2013-03-08 13:00:00,-999.0,-99.9,-100.00,SSE,163,11.0,-999.0,-999,0.00,,,0.00,,2013-03-08 19:00:00,
2013-03-08 13:42:00,-999.0,-99.9,-100.00,SSE,163,11.0,-999.0,-999,0.00,,,0.00,,2013-03-08 19:42:00,
2013-03-08 13:52:00,-999.0,-99.9,-100.00,SSE,163,11.0,-999.0,-999,0.00,,,0.00,,2013-03-08 19:52:00,
2013-03-08 14:00:00,-999.0,-99.9,-100.00,SSE,159,13.0,-999.0,-999,0.00,,,0.00,,2013-03-08 20:00:00,
2013-03-08 14:32:00,-999.0,-99.9,-100.00,SSE,159,13.0,-999.0,-999,0.00,,,0.00,,2013-03-08 20:32:00,
2013-03-08 14:42:00,-999.0,-99.9,-100.00,SSE,159,13.0,-999.0,-999,0.00,,,0.00,,2013-03-08 20:42:00,
2013-03-08 14:53:00,-999.0,-99.9,-100.00,SSE,159,13.0,-999.0,-999,0.00,,,0.00,,2013-03-08 20:53:00,
2013-03-08 15:00:00,-999.0,-99.9,-100.00,SSE,168,12.0,-999.0,-999,0.00,,,0.00,,2013-03-08 21:00:00,
2013-03-08 15:33:00,-999.0,-99.9,-100.00,SSE,168,12.0,-999.0,-999,0.00,,,0.00,,2013-03-08 21:33:00,
2013-03-08 15:42:00,-999.0,-99.9,-100.00,SSE,168,12.0,-999.0,-999,0.00,,,0.00,,2013-03-08 21:42:00,
2013-03-08 15:52:00,-999.0,-99.9,-100.00,SSE,168,12.0,-999.0,-999,0.00,,,0.00,,2013-03-08 21:52:00,
2013-03-08 16:00:00,-999.0,-99.9,-100.00,South,178,12.0,-999.0,-999,0.00,,,0.00,,2013-03-08 22:00:00,
2013-03-08 16:32:00,-999.0,-99.9,-100.00,South,178,12.0,-999.0,-999,0.00,,,0.00,,2013-03-08 22:32:00,
2013-03-08 16:42:00,-999.0,-99.9,-100.00,South,178,12.0,-999.0,-999,0.00,,,0.00,,2013-03-08 22:42:00,
2013-03-08 16:53:00,-999.0,-99.9,-100.00,South,178,12.0,-999.0,-999,0.00,,,0.00,,2013-03-08 22:53:00,
2013-03-08 17:00:00,-999.0,-99.9,-100.00,SSE,159,14.0,-999.0,-999,0.00,,,0.00,,2013-03-08 23:00:00,
2013-03-08 17:32:00,-999.0,-99.9,-100.00,SSE,159,14.0,-999.0,-999,0.00,,,0.00,,2013-03-08 23:32:00,
2013-03-08 17:42:00,-999.0,-99.9,-100.00,SSE,159,14.0,-999.0,-999,0.00,,,0.00,,2013-03-08 23:42:00,
2013-03-08 17:53:00,-999.0,-99.9,-100.00,SSE,159,14.0,-999.0,-999,0.00,,,0.00,,2013-03-08 23:53:00,
2013-03-08 18:00:00,-999.0,-99.9,-100.00,SSE,160,15.0,-999.0,-999,0.00,,,0.00,,2013-03-09 00:00:00,
2013-03-08 18:32:00,-999.0,-99.9,-100.00,SSE,160,15.0,-999.0,-999,0.00,,,0.00,,2013-03-09 00:32:00,
2013-03-08 18:43:00,-999.0,-99.9,-100.00,SSE,160,15.0,-999.0,-999,0.00,,,0.00,,2013-03-09 00:43:00,
2013-03-08 18:52:00,-999.0,-99.9,-100.00,SSE,160,15.0,-999.0,-999,0.00,,,0.00,,2013-03-09 00:52:00,
2013-03-08 21:00:00,-999.0,-99.9,-100.00,SSE,163,10.0,-999.0,-999,0.00,,,0.00,,2013-03-09 03:00:00,
2013-03-08 21:42:00,-999.0,-99.9,-100.00,SSE,163,10.0,-999.0,-999,0.00,,,0.00,,2013-03-09 03:42:00,
2013-03-08 21:52:00,-999.0,-99.9,-100.00,SSE,163,10.0,-999.0,-999,0.00,,,0.00,,2013-03-09 03:52:00,
2013-03-08 22:00:00,-999.0,-99.9,-100.00,South,172,10.0,-999.0,-999,0.00,,,0.00,,2013-03-09 04:00:00,
2013-03-08 22:32:00,-999.0,-99.9,-100.00,South,172,10.0,-999.0,-999,0.00,,,0.00,,2013-03-09 04:32:00,
2013-03-08 22:42:00,-999.0,-99.9,-100.00,South,172,10.0,-999.0,-999,0.00,,,0.00,,2013-03-09 04:42:00,
2013-03-08 22:52:00,-999.0,-99.9,-100.00,South,172,10.0,-999.0,-999,0.00,,,0.00,,2013-03-09 04:52:00,
2013-03-08 23:00:00,-999.0,-99.9,-100.00,South,180,10.0,-999.0,-999,0.04,,,0.04,,2013-03-09 05:00:00,
2013-03-08 23:32:00,-999.0,-99.9,-100.00,South,180,10.0,-999.0,-999,0.04,,,0.04,,2013-03-09 05:32:00,
2013-03-08 23:43:00,-999.0,-99.9,-100.00,South,180,10.0,-999.0,-999,0.04,,,0.04,,2013-03-09 05:43:00,
2013-03-08 23:53:00,-999.0,-99.9,-100.00,South,180,10.0,-999.0,-999,0.04,,,0.04,,2013-03-09 05:53:00,